Terminal Aerodrome Forecast
Issued by NWS

Home | Current Version | Previous Version | Text Only | Print | Product List | Glossary On
Versions: 1 2 3 4 5 6 7 8 9 10 11 12 13 14 15 16 17 18 19
000
FTUS42 KTAE 192323
TAFDHN
TAF
KDHN 192323Z 2000/2024 15006KT P6SM SCT050 BKN070
     FM200600 12004KT 4SM BR SCT030
     FM200900 12006KT 2SM BR OVC008
     FM201500 15010KT P6SM BKN015
     FM202000 15009KT P6SM BKN040=

USA.gov is the U.S. government's official web portal to all federal, state and local government web resources and services.